RYR52SL EBCI-EGCC
Flight info
| Callsign | RYR52SL |
|---|---|
| Flight time | N/A |
| Altitude | 38000 |
| Route | CIV UY50 LUMEN L610 LAM UN57 WELIN T420 ELVOS |
| Aircraft | B38M/M-SDE1FGHILORVWXY/HB1 |
Departure
| Time | 2026-05-05 12:38 |
|---|---|
| Airport | Brussels South Charleroi Airport (EBCI) |
Arrival
| Time | N/A |
|---|---|
| Airport | Manchester Airport (EGCC) |
| Time | Latitude | Longitude | Altitude | Speed | Heading |
|---|---|---|---|---|---|
| 2026-05-05 11:59 | 50.46869 | 4.47099 | 587 ft | 0 kts | 335° |
| 2026-05-05 12:30 | 50.46858 | 4.47107 | 587 ft | 4 kts | 340° |
| 2026-05-05 12:30 | 50.46832 | 4.47115 | 587 ft | 4 kts | 5° |
| 2026-05-05 12:30 | 50.46811 | 4.47101 | 588 ft | 4 kts | 57° |
| 2026-05-05 12:31 | 50.46808 | 4.47094 | 588 ft | 1 kts | 65° |
| 2026-05-05 12:31 | 50.46809 | 4.47094 | 588 ft | 0 kts | 65° |
| 2026-05-05 12:33 | 50.46813 | 4.47109 | 588 ft | 4 kts | 65° |
| 2026-05-05 12:34 | 50.46838 | 4.47195 | 588 ft | 12 kts | 65° |
| 2026-05-05 12:34 | 50.46852 | 4.47247 | 588 ft | 7 kts | 75° |
| 2026-05-05 12:34 | 50.46835 | 4.47322 | 590 ft | 8 kts | 140° |
| 2026-05-05 12:34 | 50.46784 | 4.47365 | 591 ft | 7 kts | 155° |
| 2026-05-05 12:35 | 50.46776 | 4.47371 | 592 ft | 4 kts | 155° |
| 2026-05-05 12:35 | 50.46761 | 4.47382 | 592 ft | 0 kts | 155° |
| 2026-05-05 12:37 | 50.46750 | 4.47390 | 592 ft | 7 kts | 155° |
| 2026-05-05 12:37 | 50.46668 | 4.47448 | 597 ft | 17 kts | 156° |
| 2026-05-05 12:37 | 50.46624 | 4.47462 | 599 ft | 3 kts | 199° |
| 2026-05-05 12:37 | 50.46584 | 4.47362 | 599 ft | 29 kts | 246° |
| 2026-05-05 12:38 | 50.46355 | 4.46562 | 593 ft | 129 kts | 245° |
| 2026-05-05 12:38 | 50.45869 | 4.44892 | 679 ft | 202 kts | 248° |
| 2026-05-05 12:38 | 50.45256 | 4.42701 | 1557 ft | 227 kts | 248° |
| 2026-05-05 12:38 | 50.44610 | 4.40478 | 3079 ft | 212 kts | 246° |
| 2026-05-05 12:39 | 50.43991 | 4.38299 | 3994 ft | 231 kts | 248° |
| 2026-05-05 12:39 | 50.43352 | 4.35876 | 4616 ft | 247 kts | 248° |
| 2026-05-05 12:39 | 50.42715 | 4.33446 | 5982 ft | 227 kts | 247° |
| 2026-05-05 12:39 | 50.42141 | 4.31338 | 7535 ft | 201 kts | 245° |
| 2026-05-05 12:40 | 50.41511 | 4.29246 | 8122 ft | 231 kts | 243° |
| 2026-05-05 12:40 | 50.40784 | 4.26746 | 8227 ft | 273 kts | 248° |
| 2026-05-05 12:40 | 50.40369 | 4.23821 | 8971 ft | 280 kts | 273° |
| 2026-05-05 12:40 | 50.40937 | 4.20977 | 9978 ft | 273 kts | 304° |
| 2026-05-05 12:41 | 50.41991 | 4.18450 | 10669 ft | 285 kts | 306° |
| 2026-05-05 12:41 | 50.43255 | 4.15707 | 10552 ft | 335 kts | 308° |
| 2026-05-05 12:41 | 50.44731 | 4.12766 | 11379 ft | 339 kts | 311° |
| 2026-05-05 12:41 | 50.46182 | 4.10118 | 13515 ft | 306 kts | 313° |
| 2026-05-05 12:42 | 50.47630 | 4.07515 | 13986 ft | 331 kts | 310° |
| 2026-05-05 12:42 | 50.49055 | 4.04574 | 14223 ft | 343 kts | 306° |
| 2026-05-05 12:42 | 50.50416 | 4.01487 | 14767 ft | 342 kts | 304° |
| 2026-05-05 12:42 | 50.51714 | 3.98394 | 15577 ft | 335 kts | 303° |